Ruleville, MS (38771)

8:22 PM CDT on September 01, 2015 (GMT -0500)
WKXY North Cleveland | | Change Station
CLOSE
Current Station
Personal Weather Station
Location: Cleveland, MS
Elevation: 144 ft
Nearby Weather Stations

Elev 144 ft 33.79 °N, 90.72 °W | Updated 36 seconds ago

Clear
Clear
80.2 °F
Feels Like 86 °F
N
2.0
Wind Variable Wind from NE
Gusts 2.0 mph

Today
High -- | Low -- °F
--% Chance of Precip.
Yesterday
High -- | Low -- °F
Precip. -- in
6:35 AM 7:28 PM
Waning Gibbous, 85% visible
Pressure 30.04 in
Visibility 10.0 miles
Clouds Clear
Heat Index 86 °F
Dew Point 77 °F
Humidity 90%
Rainfall 0.17 in
Snow Depth Not available.
UV 0 out of 12
Pollen 9.70 out of 12
Air Quality Not available.
Flu Activity Not available.
METAR KRNV 020115Z AUTO 00000KT 10SM CLR 26/26 A3004 RMK AO2 T02620260
Pressure 30.04 in
Visibility 10.0 miles
Clouds Clear
Heat Index 86 °F
Dew Point 77 °F
Humidity 90%
Rainfall 0.17 in
Snow Depth Not available.
UV 0 out of 12
Pollen 9.70 out of 12
Air Quality Not available.
Flu Activity Not available.
METAR KRNV 020115Z AUTO 00000KT 10SM CLR 26/26 A3004 RMK AO2 T02620260

10-Day Weather Forecast

×

Almanac

Astronomy

Sep. 01, 2015 Rise Set
Actual Time
Civil Twilight
Nautical Twilight
Astronomical Twilight
Moon
Length of Visible Light
Length of Day
Tomorrow will be .
, % of the Moon is Illuminated

Today's Extremes

State Highs State Lows

Community

WunderPhotos

Upload Photos

1,851,672 photos uploaded!

WunderBlogs® & News

Nearby

Air Quality

  Air Quality AQ Index Pollutant
Not available.

Snow Depth

Station Depth Elevation

Earthquake Activity

City Distance Mag. Time & Date
Minimum magnitude displayed is 2.5.

Coastal Water Temperatures

Place Temperature

Stations

Nearby Weather Stations

Station Location Temp. Windchill Dew Point Humidity Wind Precip. Elev Updated Type